sensor_id;sensor_type;location;lat;lon;timestamp;P1;durP1;ratioP1;P2;durP2;ratioP2
59854;SDS011;45732;52.850;6.896;2024-01-15T00:02:09;11.60;;;1.55;;
59854;SDS011;45732;52.850;6.896;2024-01-15T00:04:38;12.10;;;1.80;;
59854;SDS011;45732;52.850;6.896;2024-01-15T00:07:05;13.50;;;1.88;;
59854;SDS011;45732;52.850;6.896;2024-01-15T00:09:31;11.77;;;1.80;;
59854;SDS011;45732;52.850;6.896;2024-01-15T00:11:57;13.27;;;1.95;;
59854;SDS011;45732;52.850;6.896;2024-01-15T00:14:23;11.75;;;1.95;;
59854;SDS011;45732;52.850;6.896;2024-01-15T00:16:48;17.52;;;3.80;;
59854;SDS011;45732;52.850;6.896;2024-01-15T00:19:20;18.08;;;3.60;;
59854;SDS011;45732;52.850;6.896;2024-01-15T00:21:46;13.05;;;1.83;;
59854;SDS011;45732;52.850;6.896;2024-01-15T00:24:12;9.02;;;1.63;;
59854;SDS011;45732;52.850;6.896;2024-01-15T00:26:38;9.43;;;1.63;;
59854;SDS011;45732;52.850;6.896;2024-01-15T00:29:03;12.40;;;1.70;;
59854;SDS011;45732;52.850;6.896;2024-01-15T00:31:29;10.88;;;1.95;;
59854;SDS011;45732;52.850;6.896;2024-01-15T00:33:55;9.32;;;1.83;;
59854;SDS011;45732;52.850;6.896;2024-01-15T00:36:22;12.25;;;1.88;;
59854;SDS011;45732;52.850;6.896;2024-01-15T00:38:48;14.48;;;2.50;;
59854;SDS011;45732;52.850;6.896;2024-01-15T00:41:14;13.98;;;2.30;;
59854;SDS011;45732;52.850;6.896;2024-01-15T00:43:40;11.05;;;1.60;;
59854;SDS011;45732;52.850;6.896;2024-01-15T00:46:06;13.38;;;2.00;;
59854;SDS011;45732;52.850;6.896;2024-01-15T00:48:32;10.68;;;1.63;;
59854;SDS011;45732;52.850;6.896;2024-01-15T00:50:57;9.50;;;2.03;;
59854;SDS011;45732;52.850;6.896;2024-01-15T00:53:23;10.85;;;1.70;;
59854;SDS011;45732;52.850;6.896;2024-01-15T00:55:50;9.45;;;1.90;;
59854;SDS011;45732;52.850;6.896;2024-01-15T00:58:16;12.30;;;1.45;;
59854;SDS011;45732;52.850;6.896;2024-01-15T01:00:42;12.35;;;2.17;;
59854;SDS011;45732;52.850;6.896;2024-01-15T01:03:08;11.18;;;1.50;;
59854;SDS011;45732;52.850;6.896;2024-01-15T01:05:34;14.00;;;1.45;;
59854;SDS011;45732;52.850;6.896;2024-01-15T01:08:00;13.13;;;1.77;;
59854;SDS011;45732;52.850;6.896;2024-01-15T01:10:26;9.63;;;1.50;;
59854;SDS011;45732;52.850;6.896;2024-01-15T01:12:52;10.32;;;1.60;;
59854;SDS011;45732;52.850;6.896;2024-01-15T01:15:18;14.98;;;1.55;;
59854;SDS011;45732;52.850;6.896;2024-01-15T01:17:43;12.73;;;1.63;;
59854;SDS011;45732;52.850;6.896;2024-01-15T01:20:09;8.45;;;1.50;;
59854;SDS011;45732;52.850;6.896;2024-01-15T01:22:35;10.98;;;1.60;;
59854;SDS011;45732;52.850;6.896;2024-01-15T01:25:01;7.63;;;1.73;;
59854;SDS011;45732;52.850;6.896;2024-01-15T01:27:27;9.98;;;1.58;;
59854;SDS011;45732;52.850;6.896;2024-01-15T01:29:53;10.48;;;1.58;;
59854;SDS011;45732;52.850;6.896;2024-01-15T01:32:19;14.55;;;2.05;;
59854;SDS011;45732;52.850;6.896;2024-01-15T01:34:45;13.10;;;2.22;;
59854;SDS011;45732;52.850;6.896;2024-01-15T01:37:11;10.07;;;1.70;;
59854;SDS011;45732;52.850;6.896;2024-01-15T01:39:40;10.57;;;1.38;;
59854;SDS011;45732;52.850;6.896;2024-01-15T01:42:06;6.78;;;1.08;;
59854;SDS011;45732;52.850;6.896;2024-01-15T01:44:33;7.68;;;1.35;;
59854;SDS011;45732;52.850;6.896;2024-01-15T01:46:58;11.48;;;1.80;;
59854;SDS011;45732;52.850;6.896;2024-01-15T01:49:25;10.43;;;1.30;;
59854;SDS011;45732;52.850;6.896;2024-01-15T01:51:52;12.65;;;2.05;;
59854;SDS011;45732;52.850;6.896;2024-01-15T01:54:20;7.63;;;1.25;;
59854;SDS011;45732;52.850;6.896;2024-01-15T01:56:46;8.77;;;1.50;;
59854;SDS011;45732;52.850;6.896;2024-01-15T01:59:14;10.15;;;2.03;;
59854;SDS011;45732;52.850;6.896;2024-01-15T02:01:40;6.68;;;1.40;;
59854;SDS011;45732;52.850;6.896;2024-01-15T02:04:06;9.55;;;1.52;;
59854;SDS011;45732;52.850;6.896;2024-01-15T02:06:33;10.50;;;1.52;;
59854;SDS011;45732;52.850;6.896;2024-01-15T02:09:03;7.65;;;1.00;;
59854;SDS011;45732;52.850;6.896;2024-01-15T02:11:30;5.80;;;0.85;;
59854;SDS011;45732;52.850;6.896;2024-01-15T02:13:56;7.82;;;1.00;;
59854;SDS011;45732;52.850;6.896;2024-01-15T02:16:22;4.53;;;0.80;;
59854;SDS011;45732;52.850;6.896;2024-01-15T02:18:48;6.63;;;1.20;;
59854;SDS011;45732;52.850;6.896;2024-01-15T02:21:14;10.30;;;1.05;;
59854;SDS011;45732;52.850;6.896;2024-01-15T02:23:39;7.93;;;1.23;;
59854;SDS011;45732;52.850;6.896;2024-01-15T02:26:05;3.25;;;0.50;;
59854;SDS011;45732;52.850;6.896;2024-01-15T02:28:32;5.38;;;1.02;;
59854;SDS011;45732;52.850;6.896;2024-01-15T02:30:59;4.45;;;0.80;;
59854;SDS011;45732;52.850;6.896;2024-01-15T02:33:24;6.97;;;0.63;;
59854;SDS011;45732;52.850;6.896;2024-01-15T02:35:50;2.53;;;0.65;;
59854;SDS011;45732;52.850;6.896;2024-01-15T02:38:16;4.80;;;0.70;;
59854;SDS011;45732;52.850;6.896;2024-01-15T02:40:43;3.95;;;0.57;;
59854;SDS011;45732;52.850;6.896;2024-01-15T02:43:12;5.75;;;0.82;;
59854;SDS011;45732;52.850;6.896;2024-01-15T02:45:38;5.78;;;1.13;;
59854;SDS011;45732;52.850;6.896;2024-01-15T02:48:04;6.95;;;0.73;;
59854;SDS011;45732;52.850;6.896;2024-01-15T02:50:30;5.63;;;1.00;;
59854;SDS011;45732;52.850;6.896;2024-01-15T02:52:56;5.65;;;0.70;;
59854;SDS011;45732;52.850;6.896;2024-01-15T02:55:22;6.20;;;0.93;;
59854;SDS011;45732;52.850;6.896;2024-01-15T02:57:48;10.32;;;1.38;;
59854;SDS011;45732;52.850;6.896;2024-01-15T03:00:13;8.30;;;1.20;;
59854;SDS011;45732;52.850;6.896;2024-01-15T03:02:40;7.63;;;1.02;;
59854;SDS011;45732;52.850;6.896;2024-01-15T03:05:06;9.88;;;1.35;;
59854;SDS011;45732;52.850;6.896;2024-01-15T03:07:35;10.18;;;2.15;;
59854;SDS011;45732;52.850;6.896;2024-01-15T03:10:00;8.60;;;1.00;;
59854;SDS011;45732;52.850;6.896;2024-01-15T03:12:26;11.68;;;0.95;;
59854;SDS011;45732;52.850;6.896;2024-01-15T03:14:52;11.50;;;1.48;;
59854;SDS011;45732;52.850;6.896;2024-01-15T03:17:18;4.65;;;1.23;;
59854;SDS011;45732;52.850;6.896;2024-01-15T03:19:47;10.48;;;1.02;;
59854;SDS011;45732;52.850;6.896;2024-01-15T03:22:14;7.80;;;1.35;;
59854;SDS011;45732;52.850;6.896;2024-01-15T03:24:40;10.77;;;1.45;;
59854;SDS011;45732;52.850;6.896;2024-01-15T03:27:06;10.98;;;1.52;;
59854;SDS011;45732;52.850;6.896;2024-01-15T03:29:32;9.25;;;1.40;;
59854;SDS011;45732;52.850;6.896;2024-01-15T03:31:57;9.25;;;1.10;;
59854;SDS011;45732;52.850;6.896;2024-01-15T03:34:23;9.43;;;1.05;;
59854;SDS011;45732;52.850;6.896;2024-01-15T03:36:49;7.20;;;1.25;;
59854;SDS011;45732;52.850;6.896;2024-01-15T03:39:14;6.03;;;1.15;;
59854;SDS011;45732;52.850;6.896;2024-01-15T03:41:40;17.35;;;2.95;;
59854;SDS011;45732;52.850;6.896;2024-01-15T03:44:06;7.22;;;0.90;;
59854;SDS011;45732;52.850;6.896;2024-01-15T03:46:32;7.63;;;1.23;;
59854;SDS011;45732;52.850;6.896;2024-01-15T03:48:58;9.00;;;1.23;;
59854;SDS011;45732;52.850;6.896;2024-01-15T03:51:23;10.23;;;1.30;;
59854;SDS011;45732;52.850;6.896;2024-01-15T03:53:49;9.65;;;1.42;;
59854;SDS011;45732;52.850;6.896;2024-01-15T03:56:15;11.13;;;1.42;;
59854;SDS011;45732;52.850;6.896;2024-01-15T03:58:41;6.82;;;1.52;;
59854;SDS011;45732;52.850;6.896;2024-01-15T04:01:09;9.82;;;1.17;;
59854;SDS011;45732;52.850;6.896;2024-01-15T04:03:35;12.30;;;1.37;;
59854;SDS011;45732;52.850;6.896;2024-01-15T04:06:01;10.07;;;1.40;;
59854;SDS011;45732;52.850;6.896;2024-01-15T04:08:27;7.50;;;1.17;;
59854;SDS011;45732;52.850;6.896;2024-01-15T04:10:53;9.55;;;1.20;;
59854;SDS011;45732;52.850;6.896;2024-01-15T04:13:18;6.40;;;1.17;;
59854;SDS011;45732;52.850;6.896;2024-01-15T04:15:44;8.40;;;1.45;;
59854;SDS011;45732;52.850;6.896;2024-01-15T04:18:09;7.30;;;1.30;;
59854;SDS011;45732;52.850;6.896;2024-01-15T04:20:35;9.50;;;1.20;;
59854;SDS011;45732;52.850;6.896;2024-01-15T04:23:01;12.63;;;1.80;;
59854;SDS011;45732;52.850;6.896;2024-01-15T04:25:27;6.07;;;2.22;;
59854;SDS011;45732;52.850;6.896;2024-01-15T04:27:52;11.73;;;1.75;;
59854;SDS011;45732;52.850;6.896;2024-01-15T04:30:18;10.20;;;1.10;;
59854;SDS011;45732;52.850;6.896;2024-01-15T04:32:43;7.18;;;1.30;;
59854;SDS011;45732;52.850;6.896;2024-01-15T04:35:09;8.98;;;1.15;;
59854;SDS011;45732;52.850;6.896;2024-01-15T04:37:35;8.00;;;1.02;;
59854;SDS011;45732;52.850;6.896;2024-01-15T04:40:00;6.07;;;1.02;;
59854;SDS011;45732;52.850;6.896;2024-01-15T04:42:29;8.00;;;1.30;;
59854;SDS011;45732;52.850;6.896;2024-01-15T04:44:54;7.65;;;1.17;;
59854;SDS011;45732;52.850;6.896;2024-01-15T04:47:20;8.85;;;1.02;;
59854;SDS011;45732;52.850;6.896;2024-01-15T04:49:45;7.63;;;1.20;;
59854;SDS011;45732;52.850;6.896;2024-01-15T04:52:11;6.38;;;1.00;;
59854;SDS011;45732;52.850;6.896;2024-01-15T04:54:37;10.00;;;1.20;;
59854;SDS011;45732;52.850;6.896;2024-01-15T04:57:03;9.95;;;1.50;;
59854;SDS011;45732;52.850;6.896;2024-01-15T04:59:29;8.05;;;1.40;;
59854;SDS011;45732;52.850;6.896;2024-01-15T05:01:55;9.02;;;1.42;;
59854;SDS011;45732;52.850;6.896;2024-01-15T05:04:20;9.35;;;1.35;;
59854;SDS011;45732;52.850;6.896;2024-01-15T05:06:46;9.65;;;1.73;;
59854;SDS011;45732;52.850;6.896;2024-01-15T05:09:12;9.65;;;1.63;;
59854;SDS011;45732;52.850;6.896;2024-01-15T05:11:38;11.75;;;1.40;;
59854;SDS011;45732;52.850;6.896;2024-01-15T05:14:04;7.55;;;1.48;;
59854;SDS011;45732;52.850;6.896;2024-01-15T05:16:30;10.95;;;2.75;;
59854;SDS011;45732;52.850;6.896;2024-01-15T05:18:56;6.90;;;1.42;;
59854;SDS011;45732;52.850;6.896;2024-01-15T05:21:21;7.50;;;1.13;;
59854;SDS011;45732;52.850;6.896;2024-01-15T05:23:47;12.73;;;1.35;;
59854;SDS011;45732;52.850;6.896;2024-01-15T05:26:13;7.93;;;1.05;;
59854;SDS011;45732;52.850;6.896;2024-01-15T05:28:40;11.20;;;1.33;;
59854;SDS011;45732;52.850;6.896;2024-01-15T05:31:07;7.72;;;1.80;;
59854;SDS011;45732;52.850;6.896;2024-01-15T05:33:37;8.85;;;1.23;;
59854;SDS011;45732;52.850;6.896;2024-01-15T05:36:03;7.78;;;1.67;;
59854;SDS011;45732;52.850;6.896;2024-01-15T05:38:28;8.80;;;2.53;;
59854;SDS011;45732;52.850;6.896;2024-01-15T05:40:54;9.60;;;1.40;;
59854;SDS011;45732;52.850;6.896;2024-01-15T05:43:20;9.60;;;1.58;;
59854;SDS011;45732;52.850;6.896;2024-01-15T05:45:45;12.68;;;2.92;;
59854;SDS011;45732;52.850;6.896;2024-01-15T05:48:11;10.13;;;1.45;;
59854;SDS011;45732;52.850;6.896;2024-01-15T05:50:37;6.50;;;1.77;;
59854;SDS011;45732;52.850;6.896;2024-01-15T05:53:03;10.80;;;1.30;;
59854;SDS011;45732;52.850;6.896;2024-01-15T05:55:29;7.40;;;1.27;;
59854;SDS011;45732;52.850;6.896;2024-01-15T05:57:55;8.40;;;1.10;;
59854;SDS011;45732;52.850;6.896;2024-01-15T06:00:21;8.00;;;1.13;;
59854;SDS011;45732;52.850;6.896;2024-01-15T06:02:47;7.80;;;1.40;;
59854;SDS011;45732;52.850;6.896;2024-01-15T06:05:13;8.52;;;1.73;;
59854;SDS011;45732;52.850;6.896;2024-01-15T06:07:38;11.32;;;1.75;;
59854;SDS011;45732;52.850;6.896;2024-01-15T06:10:04;10.90;;;1.20;;
59854;SDS011;45732;52.850;6.896;2024-01-15T06:12:30;12.63;;;4.70;;
59854;SDS011;45732;52.850;6.896;2024-01-15T06:14:57;10.07;;;1.20;;
59854;SDS011;45732;52.850;6.896;2024-01-15T06:17:23;8.90;;;1.90;;
59854;SDS011;45732;52.850;6.896;2024-01-15T06:19:48;8.73;;;1.30;;
59854;SDS011;45732;52.850;6.896;2024-01-15T06:22:14;9.10;;;2.00;;
59854;SDS011;45732;52.850;6.896;2024-01-15T06:24:40;8.27;;;1.30;;
59854;SDS011;45732;52.850;6.896;2024-01-15T06:27:06;8.15;;;1.77;;
59854;SDS011;45732;52.850;6.896;2024-01-15T06:29:31;7.65;;;1.02;;
59854;SDS011;45732;52.850;6.896;2024-01-15T06:31:57;7.63;;;1.38;;
59854;SDS011;45732;52.850;6.896;2024-01-15T06:34:23;5.38;;;1.00;;
59854;SDS011;45732;52.850;6.896;2024-01-15T06:36:48;6.63;;;1.23;;
59854;SDS011;45732;52.850;6.896;2024-01-15T06:39:14;6.15;;;1.73;;
59854;SDS011;45732;52.850;6.896;2024-01-15T06:41:40;7.28;;;1.13;;
59854;SDS011;45732;52.850;6.896;2024-01-15T06:44:09;8.98;;;1.23;;
59854;SDS011;45732;52.850;6.896;2024-01-15T06:46:36;10.07;;;1.92;;
59854;SDS011;45732;52.850;6.896;2024-01-15T06:49:02;7.50;;;1.40;;
59854;SDS011;45732;52.850;6.896;2024-01-15T06:51:28;10.95;;;1.38;;
59854;SDS011;45732;52.850;6.896;2024-01-15T06:53:54;7.63;;;1.10;;
59854;SDS011;45732;52.850;6.896;2024-01-15T06:56:20;8.82;;;1.50;;
59854;SDS011;45732;52.850;6.896;2024-01-15T06:58:46;9.50;;;1.80;;
59854;SDS011;45732;52.850;6.896;2024-01-15T07:01:11;11.88;;;2.13;;
59854;SDS011;45732;52.850;6.896;2024-01-15T07:03:37;8.60;;;1.27;;
59854;SDS011;45732;52.850;6.896;2024-01-15T07:06:03;8.02;;;1.08;;
59854;SDS011;45732;52.850;6.896;2024-01-15T07:08:30;13.77;;;3.35;;
59854;SDS011;45732;52.850;6.896;2024-01-15T07:10:56;12.05;;;3.85;;
59854;SDS011;45732;52.850;6.896;2024-01-15T07:13:22;10.98;;;1.50;;
59854;SDS011;45732;52.850;6.896;2024-01-15T07:15:47;9.30;;;2.30;;
59854;SDS011;45732;52.850;6.896;2024-01-15T07:18:13;9.32;;;1.20;;
59854;SDS011;45732;52.850;6.896;2024-01-15T07:20:39;8.13;;;1.33;;
59854;SDS011;45732;52.850;6.896;2024-01-15T07:23:04;10.45;;;1.40;;
59854;SDS011;45732;52.850;6.896;2024-01-15T07:25:30;10.02;;;1.70;;
59854;SDS011;45732;52.850;6.896;2024-01-15T07:27:56;6.80;;;1.42;;
59854;SDS011;45732;52.850;6.896;2024-01-15T07:30:22;17.85;;;2.45;;
59854;SDS011;45732;52.850;6.896;2024-01-15T07:32:47;9.50;;;2.38;;
59854;SDS011;45732;52.850;6.896;2024-01-15T07:35:14;10.23;;;1.10;;
59854;SDS011;45732;52.850;6.896;2024-01-15T07:37:40;13.95;;;1.88;;
59854;SDS011;45732;52.850;6.896;2024-01-15T07:40:06;9.95;;;1.75;;
59854;SDS011;45732;52.850;6.896;2024-01-15T07:42:34;8.00;;;1.50;;
59854;SDS011;45732;52.850;6.896;2024-01-15T07:45:00;8.45;;;1.58;;
59854;SDS011;45732;52.850;6.896;2024-01-15T07:47:26;11.98;;;1.30;;
59854;SDS011;45732;52.850;6.896;2024-01-15T07:49:53;10.73;;;1.55;;
59854;SDS011;45732;52.850;6.896;2024-01-15T07:52:19;9.32;;;1.60;;
59854;SDS011;45732;52.850;6.896;2024-01-15T07:54:45;9.43;;;1.48;;
59854;SDS011;45732;52.850;6.896;2024-01-15T07:57:11;10.38;;;1.40;;
59854;SDS011;45732;52.850;6.896;2024-01-15T07:59:36;10.52;;;1.23;;
59854;SDS011;45732;52.850;6.896;2024-01-15T08:02:02;5.60;;;1.15;;
59854;SDS011;45732;52.850;6.896;2024-01-15T08:04:28;8.55;;;1.40;;
59854;SDS011;45732;52.850;6.896;2024-01-15T08:06:54;10.45;;;1.23;;
59854;SDS011;45732;52.850;6.896;2024-01-15T08:09:20;9.48;;;1.35;;
59854;SDS011;45732;52.850;6.896;2024-01-15T08:11:46;13.25;;;2.35;;
59854;SDS011;45732;52.850;6.896;2024-01-15T08:14:11;7.97;;;1.67;;
59854;SDS011;45732;52.850;6.896;2024-01-15T08:16:38;8.02;;;1.10;;
59854;SDS011;45732;52.850;6.896;2024-01-15T08:19:04;11.20;;;1.25;;
59854;SDS011;45732;52.850;6.896;2024-01-15T08:21:30;7.30;;;1.50;;
59854;SDS011;45732;52.850;6.896;2024-01-15T08:24:00;11.43;;;1.30;;
59854;SDS011;45732;52.850;6.896;2024-01-15T08:26:30;10.38;;;1.25;;
59854;SDS011;45732;52.850;6.896;2024-01-15T08:28:56;9.45;;;1.40;;
59854;SDS011;45732;52.850;6.896;2024-01-15T08:31:22;7.97;;;2.03;;
59854;SDS011;45732;52.850;6.896;2024-01-15T08:33:47;8.85;;;1.27;;
59854;SDS011;45732;52.850;6.896;2024-01-15T08:36:13;7.53;;;1.55;;
59854;SDS011;45732;52.850;6.896;2024-01-15T08:38:39;10.77;;;1.48;;
59854;SDS011;45732;52.850;6.896;2024-01-15T08:41:05;8.48;;;1.20;;
59854;SDS011;45732;52.850;6.896;2024-01-15T08:43:30;9.82;;;1.25;;
59854;SDS011;45732;52.850;6.896;2024-01-15T08:45:56;8.55;;;1.25;;
59854;SDS011;45732;52.850;6.896;2024-01-15T08:48:22;8.90;;;1.52;;
59854;SDS011;45732;52.850;6.896;2024-01-15T08:50:48;9.55;;;1.25;;
59854;SDS011;45732;52.850;6.896;2024-01-15T08:53:14;9.55;;;1.90;;
59854;SDS011;45732;52.850;6.896;2024-01-15T08:55:40;7.00;;;1.25;;
59854;SDS011;45732;52.850;6.896;2024-01-15T08:58:09;7.72;;;1.17;;
59854;SDS011;45732;52.850;6.896;2024-01-15T09:00:35;10.10;;;1.50;;
59854;SDS011;45732;52.850;6.896;2024-01-15T09:03:01;9.13;;;1.85;;
59854;SDS011;45732;52.850;6.896;2024-01-15T09:05:27;6.82;;;1.15;;
59854;SDS011;45732;52.850;6.896;2024-01-15T09:07:53;9.30;;;1.58;;
59854;SDS011;45732;52.850;6.896;2024-01-15T09:10:20;11.15;;;1.65;;
59854;SDS011;45732;52.850;6.896;2024-01-15T09:12:46;8.23;;;1.48;;
59854;SDS011;45732;52.850;6.896;2024-01-15T09:15:14;7.60;;;1.50;;
59854;SDS011;45732;52.850;6.896;2024-01-15T09:17:40;11.23;;;1.70;;
59854;SDS011;45732;52.850;6.896;2024-01-15T09:20:06;9.75;;;1.55;;
59854;SDS011;45732;52.850;6.896;2024-01-15T09:22:32;11.70;;;1.90;;
59854;SDS011;45732;52.850;6.896;2024-01-15T09:24:58;11.00;;;1.40;;
59854;SDS011;45732;52.850;6.896;2024-01-15T09:27:24;14.32;;;2.20;;
59854;SDS011;45732;52.850;6.896;2024-01-15T09:29:53;11.50;;;2.80;;
59854;SDS011;45732;52.850;6.896;2024-01-15T09:32:19;12.30;;;1.60;;
59854;SDS011;45732;52.850;6.896;2024-01-15T09:34:48;11.25;;;1.55;;
59854;SDS011;45732;52.850;6.896;2024-01-15T09:37:14;12.98;;;2.78;;
59854;SDS011;45732;52.850;6.896;2024-01-15T09:39:40;8.15;;;1.35;;
59854;SDS011;45732;52.850;6.896;2024-01-15T09:42:06;9.57;;;1.88;;
59854;SDS011;45732;52.850;6.896;2024-01-15T09:44:33;9.60;;;1.35;;
59854;SDS011;45732;52.850;6.896;2024-01-15T09:46:59;13.50;;;1.55;;
59854;SDS011;45732;52.850;6.896;2024-01-15T09:49:25;11.43;;;1.63;;
59854;SDS011;45732;52.850;6.896;2024-01-15T09:51:51;9.93;;;1.50;;
59854;SDS011;45732;52.850;6.896;2024-01-15T09:54:17;10.98;;;1.95;;
59854;SDS011;45732;52.850;6.896;2024-01-15T09:56:46;11.40;;;1.98;;
59854;SDS011;45732;52.850;6.896;2024-01-15T09:59:21;10.13;;;1.85;;
59854;SDS011;45732;52.850;6.896;2024-01-15T10:01:49;7.38;;;1.20;;
59854;SDS011;45732;52.850;6.896;2024-01-15T10:04:16;10.00;;;1.85;;
59854;SDS011;45732;52.850;6.896;2024-01-15T10:06:43;9.63;;;2.75;;
59854;SDS011;45732;52.850;6.896;2024-01-15T10:09:12;11.93;;;2.55;;
59854;SDS011;45732;52.850;6.896;2024-01-15T10:11:40;8.65;;;1.30;;
59854;SDS011;45732;52.850;6.896;2024-01-15T10:14:08;9.43;;;1.75;;
59854;SDS011;45732;52.850;6.896;2024-01-15T10:16:34;9.27;;;1.52;;
59854;SDS011;45732;52.850;6.896;2024-01-15T10:19:00;10.65;;;1.55;;
59854;SDS011;45732;52.850;6.896;2024-01-15T10:21:26;9.48;;;1.80;;
59854;SDS011;45732;52.850;6.896;2024-01-15T10:23:54;11.52;;;1.20;;
59854;SDS011;45732;52.850;6.896;2024-01-15T10:26:24;8.57;;;1.35;;
59854;SDS011;45732;52.850;6.896;2024-01-15T10:28:50;10.45;;;1.75;;
59854;SDS011;45732;52.850;6.896;2024-01-15T10:31:17;9.60;;;1.45;;
59854;SDS011;45732;52.850;6.896;2024-01-15T10:33:44;12.95;;;1.52;;
59854;SDS011;45732;52.850;6.896;2024-01-15T10:36:10;9.38;;;1.45;;
59854;SDS011;45732;52.850;6.896;2024-01-15T10:38:36;9.85;;;1.52;;
59854;SDS011;45732;52.850;6.896;2024-01-15T10:41:02;11.10;;;1.58;;
59854;SDS011;45732;52.850;6.896;2024-01-15T10:43:29;7.40;;;1.38;;
59854;SDS011;45732;52.850;6.896;2024-01-15T10:45:55;8.98;;;1.38;;
59854;SDS011;45732;52.850;6.896;2024-01-15T10:48:20;8.32;;;1.52;;
59854;SDS011;45732;52.850;6.896;2024-01-15T10:50:46;8.75;;;1.27;;
59854;SDS011;45732;52.850;6.896;2024-01-15T10:53:13;6.15;;;1.00;;
59854;SDS011;45732;52.850;6.896;2024-01-15T10:55:42;6.38;;;1.00;;
59854;SDS011;45732;52.850;6.896;2024-01-15T10:58:08;6.55;;;1.40;;
59854;SDS011;45732;52.850;6.896;2024-01-15T11:00:35;5.80;;;1.20;;
59854;SDS011;45732;52.850;6.896;2024-01-15T11:03:03;9.85;;;1.27;;
59854;SDS011;45732;52.850;6.896;2024-01-15T11:05:34;6.68;;;1.05;;
59854;SDS011;45732;52.850;6.896;2024-01-15T11:08:08;5.32;;;1.52;;
59854;SDS011;45732;52.850;6.896;2024-01-15T11:10:42;5.25;;;0.80;;
59854;SDS011;45732;52.850;6.896;2024-01-15T11:15:59;7.10;;;1.17;;
59854;SDS011;45732;52.850;6.896;2024-01-15T11:18:30;7.72;;;1.55;;
59854;SDS011;45732;52.850;6.896;2024-01-15T11:23:47;5.40;;;1.00;;
59854;SDS011;45732;52.850;6.896;2024-01-15T11:26:44;5.20;;;1.10;;
59854;SDS011;45732;52.850;6.896;2024-01-15T11:34:20;4.05;;;0.77;;
59854;SDS011;45732;52.850;6.896;2024-01-15T11:37:06;8.27;;;1.15;;
59854;SDS011;45732;52.850;6.896;2024-01-15T11:42:01;5.53;;;1.05;;
59854;SDS011;45732;52.850;6.896;2024-01-15T11:44:28;5.15;;;1.00;;
59854;SDS011;45732;52.850;6.896;2024-01-15T11:52:16;3.97;;;0.85;;
59854;SDS011;45732;52.850;6.896;2024-01-15T11:55:00;1.92;;;0.50;;
59854;SDS011;45732;52.850;6.896;2024-01-15T11:57:33;4.75;;;0.80;;
59854;SDS011;45732;52.850;6.896;2024-01-15T12:00:11;3.67;;;0.82;;
59854;SDS011;45732;52.850;6.896;2024-01-15T12:02:41;6.45;;;0.73;;
59854;SDS011;45732;52.850;6.896;2024-01-15T12:05:08;2.85;;;0.65;;
59854;SDS011;45732;52.850;6.896;2024-01-15T12:07:35;3.47;;;0.65;;
59854;SDS011;45732;52.850;6.896;2024-01-15T12:10:01;6.13;;;0.82;;
59854;SDS011;45732;52.850;6.896;2024-01-15T12:15:17;2.88;;;0.60;;
59854;SDS011;45732;52.850;6.896;2024-01-15T12:17:46;3.15;;;0.60;;
59854;SDS011;45732;52.850;6.896;2024-01-15T12:20:12;3.70;;;0.60;;
59854;SDS011;45732;52.850;6.896;2024-01-15T12:22:38;3.33;;;0.50;;
59854;SDS011;45732;52.850;6.896;2024-01-15T12:25:04;3.92;;;0.60;;
59854;SDS011;45732;52.850;6.896;2024-01-15T12:27:30;3.67;;;0.50;;
59854;SDS011;45732;52.850;6.896;2024-01-15T12:29:57;2.15;;;1.25;;
59854;SDS011;45732;52.850;6.896;2024-01-15T12:32:24;2.72;;;0.43;;
59854;SDS011;45732;52.850;6.896;2024-01-15T12:34:50;3.55;;;0.50;;
59854;SDS011;45732;52.850;6.896;2024-01-15T12:37:19;2.85;;;0.40;;
59854;SDS011;45732;52.850;6.896;2024-01-15T12:39:46;2.30;;;0.43;;
59854;SDS011;45732;52.850;6.896;2024-01-15T12:42:15;1.10;;;0.30;;
59854;SDS011;45732;52.850;6.896;2024-01-15T12:44:42;2.30;;;0.52;;
59854;SDS011;45732;52.850;6.896;2024-01-15T12:47:09;2.60;;;0.30;;
59854;SDS011;45732;52.850;6.896;2024-01-15T12:49:38;1.23;;;0.22;;
59854;SDS011;45732;52.850;6.896;2024-01-15T12:52:07;0.77;;;0.30;;
59854;SDS011;45732;52.850;6.896;2024-01-15T12:54:34;1.60;;;0.40;;
59854;SDS011;45732;52.850;6.896;2024-01-15T12:57:00;2.50;;;0.45;;
59854;SDS011;45732;52.850;6.896;2024-01-15T12:59:25;3.10;;;0.40;;
59854;SDS011;45732;52.850;6.896;2024-01-15T13:01:51;3.50;;;0.50;;
59854;SDS011;45732;52.850;6.896;2024-01-15T13:04:23;1.02;;;0.40;;
59854;SDS011;45732;52.850;6.896;2024-01-15T13:06:50;3.67;;;0.55;;
59854;SDS011;45732;52.850;6.896;2024-01-15T13:09:19;3.40;;;0.52;;
59854;SDS011;45732;52.850;6.896;2024-01-15T13:11:45;4.18;;;0.60;;
59854;SDS011;45732;52.850;6.896;2024-01-15T13:14:14;5.57;;;0.77;;
59854;SDS011;45732;52.850;6.896;2024-01-15T13:16:40;2.90;;;0.50;;
59854;SDS011;45732;52.850;6.896;2024-01-15T13:19:09;8.68;;;1.25;;
59854;SDS011;45732;52.850;6.896;2024-01-15T13:21:41;6.30;;;0.87;;
59854;SDS011;45732;52.850;6.896;2024-01-15T13:24:07;4.07;;;0.80;;
59854;SDS011;45732;52.850;6.896;2024-01-15T13:26:33;4.82;;;0.60;;
59854;SDS011;45732;52.850;6.896;2024-01-15T13:29:02;3.78;;;0.60;;
59854;SDS011;45732;52.850;6.896;2024-01-15T13:31:31;5.07;;;0.70;;
59854;SDS011;45732;52.850;6.896;2024-01-15T13:33:58;22.83;;;7.03;;
59854;SDS011;45732;52.850;6.896;2024-01-15T13:36:24;11.90;;;2.97;;
59854;SDS011;45732;52.850;6.896;2024-01-15T13:38:51;3.45;;;0.70;;
59854;SDS011;45732;52.850;6.896;2024-01-15T13:41:18;9.98;;;1.10;;
59854;SDS011;45732;52.850;6.896;2024-01-15T13:43:45;8.27;;;1.77;;
59854;SDS011;45732;52.850;6.896;2024-01-15T13:46:13;10.07;;;1.10;;
59854;SDS011;45732;52.850;6.896;2024-01-15T13:48:38;9.40;;;1.40;;
59854;SDS011;45732;52.850;6.896;2024-01-15T13:51:04;13.85;;;1.50;;
59854;SDS011;45732;52.850;6.896;2024-01-15T13:53:33;6.03;;;1.17;;
59854;SDS011;45732;52.850;6.896;2024-01-15T13:55:59;5.07;;;1.15;;
59854;SDS011;45732;52.850;6.896;2024-01-15T13:58:24;5.07;;;0.88;;
59854;SDS011;45732;52.850;6.896;2024-01-15T14:00:51;3.63;;;0.60;;
59854;SDS011;45732;52.850;6.896;2024-01-15T14:03:17;4.40;;;1.75;;
59854;SDS011;45732;52.850;6.896;2024-01-15T14:05:44;4.03;;;0.85;;
59854;SDS011;45732;52.850;6.896;2024-01-15T14:08:10;5.15;;;0.75;;
59854;SDS011;45732;52.850;6.896;2024-01-15T14:10:35;4.07;;;1.77;;
59854;SDS011;45732;52.850;6.896;2024-01-15T14:13:02;2.95;;;0.50;;
59854;SDS011;45732;52.850;6.896;2024-01-15T14:15:28;5.07;;;0.60;;
59854;SDS011;45732;52.850;6.896;2024-01-15T14:17:54;5.93;;;0.90;;
59854;SDS011;45732;52.850;6.896;2024-01-15T14:20:20;3.30;;;0.80;;
59854;SDS011;45732;52.850;6.896;2024-01-15T14:22:45;5.90;;;0.80;;
59854;SDS011;45732;52.850;6.896;2024-01-15T14:25:11;2.45;;;0.50;;
59854;SDS011;45732;52.850;6.896;2024-01-15T14:27:37;2.90;;;0.50;;
59854;SDS011;45732;52.850;6.896;2024-01-15T14:30:03;5.00;;;0.57;;
59854;SDS011;45732;52.850;6.896;2024-01-15T14:32:30;4.72;;;0.70;;
59854;SDS011;45732;52.850;6.896;2024-01-15T14:34:56;5.57;;;0.93;;
59854;SDS011;45732;52.850;6.896;2024-01-15T14:37:22;5.75;;;0.90;;
59854;SDS011;45732;52.850;6.896;2024-01-15T14:39:47;7.55;;;1.05;;
59854;SDS011;45732;52.850;6.896;2024-01-15T14:42:16;4.13;;;1.13;;
59854;SDS011;45732;52.850;6.896;2024-01-15T14:44:42;8.07;;;1.50;;
59854;SDS011;45732;52.850;6.896;2024-01-15T14:47:07;4.82;;;0.70;;
59854;SDS011;45732;52.850;6.896;2024-01-15T14:49:33;5.35;;;0.70;;
59854;SDS011;45732;52.850;6.896;2024-01-15T14:51:59;6.20;;;0.70;;
59854;SDS011;45732;52.850;6.896;2024-01-15T14:54:25;6.00;;;1.15;;
59854;SDS011;45732;52.850;6.896;2024-01-15T14:56:51;4.35;;;0.95;;
59854;SDS011;45732;52.850;6.896;2024-01-15T14:59:17;5.13;;;1.27;;
59854;SDS011;45732;52.850;6.896;2024-01-15T15:01:43;7.68;;;1.95;;